METAR AND TAF INFORMATION
METAR FOR UMMS
ADDS - METARS form results

(0427 UTC 15 November 2018)
Data provider http://aviationweather.gov/metar/data/
 
METAR text: UMMS 150421Z 04002MPS 9999 BKN005CB M00/M00 Q1027 R31/590635 NOSIG
Conditions at: UMMS (MINSK , BY) observed 0421 UTC 15 November 2018
Temperature: 0.0°C (32°F)
Dewpoint: 0.0°C (32°F) [RH = 100%]
Pressure (altimeter): 30.32 inches Hg (1027.0 mb)
Winds: from the NE (40 degrees) at 5 MPH (4 knots; 2.1 m/s)
Visibility: 6 or more miles (10+ km)
Ceiling: 500 feet AGL
Clouds: broken clouds at 500 feet AGL
Weather: no significant weather observed at this time

METAR text: UMMS 150400Z 04002MPS 8000 -SHSN BKN005CB M00/M00 Q1027 R31/590635 NOSIG RMK QBB150
Conditions at: UMMS (MINSK , BY) observed 0400 UTC 15 November 2018
Temperature: 0.0°C (32°F)
Dewpoint: 0.0°C (32°F) [RH = 100%]
Pressure (altimeter): 30.32 inches Hg (1027.0 mb)
Winds: from the NE (40 degrees) at 5 MPH (4 knots; 2.1 m/s)
Visibility: 5 miles ( 8 km)
Ceiling: 500 feet AGL
Clouds: broken clouds at 500 feet AGL
Weather: -SHSN  (light snow showers)

METAR text: UMMS 150353Z 04002MPS 7000 -SHSN BKN005CB 00/00 Q1026 R31/590635 NOSIG
Conditions at: UMMS (MINSK , BY) observed 0353 UTC 15 November 2018
Temperature: 0.0°C (32°F)
Dewpoint: 0.0°C (32°F) [RH = 100%]
Pressure (altimeter): 30.30 inches Hg (1026.0 mb)
Winds: from the NE (40 degrees) at 5 MPH (4 knots; 2.1 m/s)
Visibility: 4 miles ( 7 km)
Ceiling: 500 feet AGL
Clouds: broken clouds at 500 feet AGL
Weather: -SHSN  (light snow showers)

METAR text: UMMS 150340Z 03002MPS 7000 -SHSN BKN004CB 00/00 Q1026 R31/590635 NOSIG
Conditions at: UMMS (MINSK , BY) observed 0340 UTC 15 November 2018
Temperature: 0.0°C (32°F)
Dewpoint: 0.0°C (32°F) [RH = 100%]
Pressure (altimeter): 30.30 inches Hg (1026.0 mb)
Winds: from the NNE (30 degrees) at 5 MPH (4 knots; 2.1 m/s)
Visibility: 4 miles ( 7 km)
Ceiling: 400 feet AGL
Clouds: broken clouds at 400 feet AGL
Weather: -SHSN  (light snow showers)

METAR text: UMMS 150338Z 03002MPS 7000 -SHSN BKN005CB 00/00 Q1026 R31/590635 NOSIG
Conditions at: UMMS (MINSK , BY) observed 0338 UTC 15 November 2018
Temperature: 0.0°C (32°F)
Dewpoint: 0.0°C (32°F) [RH = 100%]
Pressure (altimeter): 30.30 inches Hg (1026.0 mb)
Winds: from the NNE (30 degrees) at 5 MPH (4 knots; 2.1 m/s)
Visibility: 4 miles ( 7 km)
Ceiling: 500 feet AGL
Clouds: broken clouds at 500 feet AGL
Weather: -SHSN  (light snow showers)

METAR text: UMMS 150330Z 02002MPS 5000 -SHSN BKN004CB 00/00 Q1026 R31/590635 TEMPO 1200 SHSNRA RMK QBB140
Conditions at: UMMS (MINSK , BY) observed 0330 UTC 15 November 2018
Temperature: 0.0°C (32°F)
Dewpoint: 0.0°C (32°F) [RH = 100%]
Pressure (altimeter): 30.30 inches Hg (1026.0 mb)
Winds: from the NNE (20 degrees) at 5 MPH (4 knots; 2.1 m/s)
Visibility: 3 miles ( 5 km)
Ceiling: 400 feet AGL
Clouds: broken clouds at 400 feet AGL
Weather: -SHSN  (light snow showers)

Forecast for: UMMS (MINSK , BY)
Text: TAF UMMS 142306Z 1423/1524 33006MPS 1200 SHSN BKN003 BKN010CB TX01/1514Z TNM01/1503Z
Forecast period: 2300 UTC 14 November 2018 to 0700 UTC 15 November 2018
Forecast type: FROM: standard forecast or significant change
Winds: from the NNW (330 degrees) at 14 MPH (12 knots; 6.2 m/s)
Visibility: 0.75 miles (1.21 km)
Ceiling: 300 feet AGL
Clouds: broken clouds at 300 feet AGL
broken clouds at 1000 feet AGL
Weather: SHSN  (snow showers)
Text: TEMPO 1423/1507 36008G13MPS 0600 +SHSNRA BKN002 BKN010CB
Forecast period: 2300 UTC 14 November 2018 to 0700 UTC 15 November 2018
Forecast type: TEMPORARY: The following changes expected for less than half the time period
Winds: from the N (360 degrees) at 18 MPH (16 knots; 8.2 m/s)
gusting to 29 MPH (25 knots; 12.9 m/s)
Visibility: 0.37 miles (0.60 km)
Ceiling: 200 feet AGL
Clouds: broken clouds at 200 feet AGL
broken clouds at 1000 feet AGL
Weather: +SHSN +SHRA  (heavy snow showers, heavy rain showers)
Text: BECMG 1507/1508 01004MPS 9999 NSW BKN015
Forecast period: 0700 UTC 15 November 2018 to 0000 UTC 16 November 2018
Forecast type: BECOMING: Conditions expected to become as follows by 0800 UTC 15 November 2018
Winds: from the N (10 degrees) at 9 MPH (8 knots; 4.1 m/s)
Visibility: 6 or more miles 10+ km)
Ceiling: 1500 feet AGL
Clouds: broken clouds at 1500 feet AGL
Weather: NSW  (no significant weather)
Text: TEMPO 1508/1518 03005G10MPS 2100 -SHRASN BKN003 BKN010CB
Forecast period: 0800 to 1800 UTC 15 November 2018
Forecast type: TEMPORARY: The following changes expected for less than half the time period
Winds: from the NNE (30 degrees) at 12 MPH (10 knots; 5.1 m/s)
gusting to 22 MPH (19 knots; 9.8 m/s)
Visibility: 1.30 miles (2.09 km)
Ceiling: 300 feet AGL
Clouds: broken clouds at 300 feet AGL
broken clouds at 1000 feet AGL
Weather: -SHRA -SHSN  (light rain showers, light snow showers)
Text: TEMPO 1518/1524 1200 BR BKN003
Forecast period: 1800 UTC 15 November 2018 to 0000 UTC 16 November 2018
Forecast type: TEMPORARY: The following changes expected for less than half the time period
Visibility: 0.75 miles (1.21 km)
Ceiling: 300 feet AGL
Clouds: broken clouds at 300 feet AGL
Weather: BR  (mist)

 AIRPORT MAP

 RUNWAY INFORMATION
Runway 13 Runway length 11946 ft Runway width 197 ft
Runway elevation 640 ft Runway displaced threshold 0 ft Runway heading 139
Runway 31 Runway length 11946 ft Runway width 197 ft
Runway elevation 670 ft Runway displaced threshold 0 ft Runway heading 319

 AIRPORT FREQUENCIES
Type APP Name MINSK APP Frequency 125.9 MHZ
Type ATIS Name ATIS Frequency 128.85 MHZ
Type GND Name GND Frequency 121.7 MHZ
Type PMSV Name MINSK VOLM Frequency 126.675 MHZ
Type RDR Name MINSK RADA Frequency 125.25 MHZ
Type TWR Name TWR Frequency 118.3 MHZ

 AIRPORT NEAR NAVIGATION AIDS
Type NDB Name Minsk-2 Frequency 635 KHZ
Type VOR-DME Name Minsk-2 Frequency 113600 KHZ
Type NDB Name Minsk-2 Frequency 635 KHZ



Powered by Virtual Airlines Manager [v2.6.2]